createdAt,value
2018-01-03T00:01:29.284Z,41.0
2018-01-03T00:11:27.948Z,39.6
2018-01-03T00:21:33.281Z,39.1
2018-01-03T00:31:29.577Z,42.7
2018-01-03T00:41:30.678Z,40.8
2018-01-03T00:51:29.793Z,33.3
2018-01-03T01:01:27.541Z,32.6
2018-01-03T01:11:33.051Z,33.0
2018-01-03T01:21:30.196Z,33.9
2018-01-03T01:31:26.704Z,39.6
2018-01-03T01:41:56.860Z,38.2
2018-01-03T01:51:26.885Z,30.4
2018-01-03T02:01:34.235Z,29.2
2018-01-03T02:11:26.969Z,37.3
2018-01-03T02:21:32.338Z,34.5
2018-01-03T02:31:29.490Z,33.4
2018-01-03T02:41:32.317Z,34.2
2018-01-03T02:51:31.973Z,31.3
2018-01-03T03:01:30.913Z,35.9
2018-01-03T03:11:31.874Z,37.1
2018-01-03T03:21:32.995Z,37.4
2018-01-03T03:31:34.280Z,34.7
2018-01-03T03:41:42.993Z,37.3
2018-01-03T03:51:33.933Z,40.5
2018-01-03T04:01:31.995Z,34.7
2018-01-03T04:11:32.101Z,39.8
2018-01-03T04:21:26.537Z,36.8
2018-01-03T04:31:33.444Z,32.8
2018-01-03T04:41:32.270Z,39.0
2018-01-03T04:51:31.559Z,32.3
2018-01-03T05:01:32.540Z,39.9
2018-01-03T05:11:49.047Z,36.5
2018-01-03T05:21:27.837Z,41.2
2018-01-03T05:31:32.700Z,37.8
2018-01-03T05:41:32.662Z,36.7
2018-01-03T05:51:34.558Z,35.3
2018-01-03T06:01:31.664Z,31.1
2018-01-03T06:11:46.334Z,36.0
2018-01-03T06:21:32.573Z,31.8
2018-01-03T06:31:26.736Z,35.7
2018-01-03T06:41:32.370Z,35.6
2018-01-03T06:51:32.756Z,30.6
2018-01-03T07:01:27.007Z,29.5
2018-01-03T07:11:31.741Z,35.8
2018-01-03T07:21:32.181Z,29.2
2018-01-03T07:31:33.128Z,34.7
2018-01-03T07:41:44.903Z,28.7
2018-01-03T07:51:28.546Z,24.3
2018-01-03T08:01:34.439Z,22.8
2018-01-03T08:11:43.858Z,25.6
2018-01-03T08:21:34.224Z,19.9
2018-01-03T08:31:32.503Z,13.5
2018-01-03T08:41:26.429Z,17.5
2018-01-03T08:51:32.445Z,25.4
2018-01-03T09:01:32.263Z,10.6
2018-01-03T09:11:32.770Z,9.1
2018-01-03T09:21:27.922Z,9.9
2018-01-03T09:31:34.753Z,5.9
2018-01-03T09:41:46.243Z,6.1
2018-01-03T09:51:27.005Z,6.7
2018-01-03T10:01:49.092Z,6.6
2018-01-03T10:11:32.727Z,6.3
2018-01-03T10:21:27.616Z,5.1
2018-01-03T10:31:27.655Z,8.7
2018-01-03T10:41:27.419Z,5.4
2018-01-03T10:51:27.163Z,4.0
2018-01-03T11:01:32.947Z,6.4
2018-01-03T11:11:32.091Z,5.2
2018-01-03T11:21:27.693Z,4.9
2018-01-03T11:31:28.600Z,4.6
2018-01-03T11:41:27.282Z,4.7
2018-01-03T11:51:28.801Z,5.1
2018-01-03T12:11:44.165Z,4.2
2018-01-03T12:21:33.116Z,4.9
2018-01-03T12:31:28.273Z,5.7
2018-01-03T12:41:32.007Z,1.9
2018-01-03T12:51:32.888Z,7.7
2018-01-03T13:01:32.169Z,4.5
2018-01-03T13:11:32.157Z,6.0
2018-01-03T13:21:32.626Z,7.5
2018-01-03T13:31:33.459Z,5.6
2018-01-03T13:41:32.119Z,8.2
2018-01-03T14:01:32.795Z,3.9
2018-01-03T14:11:32.625Z,5.4
2018-01-03T14:21:27.046Z,5.8
2018-01-03T14:31:45.281Z,6.4
2018-01-03T14:41:32.969Z,8.8
2018-01-03T14:51:26.714Z,13.7
2018-01-03T15:01:32.840Z,17.6
2018-01-03T15:11:32.604Z,16.9
2018-01-03T15:21:31.976Z,12.5
2018-01-03T15:31:32.505Z,17.1
2018-01-03T15:41:32.252Z,10.9
2018-01-03T15:51:46.457Z,17.5
2018-01-03T16:01:59.804Z,23.3
2018-01-03T16:11:33.097Z,15.2
2018-01-03T16:21:53.801Z,13.9
2018-01-03T16:31:32.785Z,16.4
2018-01-03T16:41:33.561Z,17.3
2018-01-03T16:51:38.034Z,20.3
2018-01-03T17:02:12.728Z,16.9
2018-01-03T17:11:33.409Z,17.1
2018-01-03T17:21:33.458Z,16.5
2018-01-03T17:31:27.149Z,9.9
2018-01-03T17:41:31.948Z,8.9
2018-01-03T17:51:31.944Z,6.3
2018-01-03T18:01:32.009Z,4.7
2018-01-03T18:11:51.380Z,7.0
2018-01-03T18:21:44.862Z,8.9
2018-01-03T18:31:32.768Z,6.8
2018-01-03T18:42:03.194Z,7.8
2018-01-03T18:51:34.901Z,10.1
2018-01-03T19:01:35.043Z,9.6
2018-01-03T19:11:35.129Z,6.1
2018-01-03T19:21:43.228Z,7.3
2018-01-03T19:31:27.001Z,8.5
2018-01-03T19:41:30.270Z,9.7
2018-01-03T19:51:35.459Z,10.2
2018-01-03T20:01:42.504Z,14.5
2018-01-03T20:11:49.634Z,9.5
2018-01-03T20:21:31.881Z,11.2
2018-01-03T20:31:33.209Z,11.1
2018-01-03T20:41:32.293Z,10.8
2018-01-03T20:51:46.337Z,10.1
2018-01-03T21:01:31.502Z,11.6
2018-01-03T21:11:28.617Z,14.6
2018-01-03T21:21:32.295Z,12.6
2018-01-03T21:31:32.406Z,15.4
2018-01-03T21:41:26.717Z,16.0
2018-01-03T21:51:39.763Z,14.5
2018-01-03T22:01:32.747Z,10.8
2018-01-03T22:11:34.203Z,14.1
2018-01-03T22:21:32.573Z,10.7
2018-01-03T22:31:32.381Z,10.8
2018-01-03T22:41:29.649Z,11.9
2018-01-03T22:51:49.904Z,12.6
2018-01-03T23:01:32.162Z,12.0
2018-01-03T23:11:28.817Z,16.7
2018-01-03T23:21:34.952Z,16.0
2018-01-03T23:31:42.453Z,13.0
2018-01-03T23:41:28.653Z,11.5
2018-01-03T23:51:28.261Z,11.8
